Time;durP1;ratioP1;P1;durP2;ratioP2;P2;SDS_P1;SDS_P2;PMS_P1;PMS_P2;Temp;Humidity;BMP_temperature;BMP_pressure;BME280_temperature;BME280_humidity;BME280_pressure;Samples;Min_cycle;Max_cycle;Signal;HPM_P1;HPM_P2
2023/11/24 00:02:16;;;;;;;4.45;1.65;;;13.20;78.60;;;;;;4941548;29;20070;-76
2023/11/24 00:04:43;;;;;;;3.20;1.45;;;13.20;78.60;;;;;;4957759;28;20043;-75
2023/11/24 00:07:10;;;;;;;5.00;1.50;;;13.20;78.60;;;;;;4940939;29;20027;-74
2023/11/24 00:09:35;;;;;;;3.65;1.52;;;13.20;78.60;;;;;;4956085;29;20042;-74
2023/11/24 00:12:01;;;;;;;3.08;1.58;;;13.10;78.50;;;;;;4940201;29;20035;-74
2023/11/24 00:14:28;;;;;;;3.50;1.55;;;13.10;78.50;;;;;;4956469;29;20034;-74
2023/11/24 00:16:54;;;;;;;3.00;1.42;;;13.10;78.50;;;;;;4956050;29;20043;-74
2023/11/24 00:19:19;;;;;;;4.78;1.33;;;13.10;78.50;;;;;;4956053;29;20083;-74
2023/11/24 00:21:49;;;;;;;1.55;1.20;;;13.10;78.50;;;;;;4957344;29;20027;-75
2023/11/24 00:24:18;;;;;;;2.85;1.15;;;13.00;78.50;;;;;;4941146;29;20031;-75
2023/11/24 00:26:44;;;;;;;3.17;1.30;;;13.00;78.50;;;;;;4955932;29;20031;-75
2023/11/24 00:29:10;;;;;;;3.42;1.50;;;13.00;78.50;;;;;;4956899;29;20066;-74
2023/11/24 00:31:36;;;;;;;1.10;1.00;;;13.00;78.50;;;;;;4923875;29;20074;-75
2023/11/24 00:34:03;;;;;;;3.33;1.58;;;13.00;78.50;;;;;;4940562;29;20058;-75
2023/11/24 00:36:29;;;;;;;1.95;1.10;;;12.90;78.40;;;;;;4940028;29;20064;-75
2023/11/24 00:38:55;;;;;;;2.13;1.13;;;12.90;78.40;;;;;;4940074;29;20070;-75
2023/11/24 00:41:22;;;;;;;2.58;1.20;;;12.90;78.40;;;;;;4940047;29;20032;-76
2023/11/24 00:43:49;;;;;;;1.77;1.10;;;12.90;78.50;;;;;;4955508;29;20031;-75
2023/11/24 00:46:17;;;;;;;2.58;1.13;;;12.90;78.50;;;;;;4955543;29;20456;-76
2023/11/24 00:48:43;;;;;;;1.85;1.10;;;12.80;78.40;;;;;;4954864;28;20036;-75
2023/11/24 00:51:09;;;;;;;2.25;1.48;;;12.80;78.40;;;;;;4940253;29;20445;-75
2023/11/24 00:53:35;;;;;;;1.85;1.10;;;12.80;78.40;;;;;;4955168;29;20035;-75
2023/11/24 00:56:02;;;;;;;3.97;1.40;;;12.70;78.30;;;;;;4939652;29;20133;-76
2023/11/24 00:58:28;;;;;;;1.85;1.20;;;12.80;78.40;;;;;;4939965;29;20411;-75
2023/11/24 01:00:54;;;;;;;1.50;1.13;;;12.70;78.30;;;;;;4955698;29;20102;-75
2023/11/24 01:03:21;;;;;;;1.70;1.08;;;12.70;78.30;;;;;;4939293;29;20063;-75
2023/11/24 01:05:48;;;;;;;1.73;1.15;;;12.70;78.40;;;;;;4956397;28;20031;-76
2023/11/24 01:08:16;;;;;;;2.17;1.20;;;12.60;78.30;;;;;;4923841;29;20031;-75
2023/11/24 01:10:43;;;;;;;2.42;1.25;;;12.60;78.30;;;;;;4955252;29;20035;-76
2023/11/24 01:13:09;;;;;;;2.35;1.13;;;12.60;78.30;;;;;;4954694;29;20051;-75
2023/11/24 01:15:35;;;;;;;2.25;1.20;;;12.60;78.30;;;;;;4955172;29;20035;-75
2023/11/24 01:18:06;;;;;;;2.53;1.17;;;12.60;78.40;;;;;;4939542;29;20039;-75
2023/11/24 01:20:36;;;;;;;2.25;1.27;;;12.60;78.40;;;;;;4939747;29;20042;-75
2023/11/24 01:23:04;;;;;;;4.30;1.55;;;12.50;78.30;;;;;;4938941;29;20046;-75
2023/11/24 01:25:31;;;;;;;2.38;1.25;;;12.50;78.40;;;;;;4956272;29;20032;-75
2023/11/24 01:27:58;;;;;;;2.88;1.48;;;12.50;78.40;;;;;;4954996;29;20031;-74
2023/11/24 01:30:24;;;;;;;2.28;1.30;;;12.50;78.40;;;;;;4955905;28;20476;-75
2023/11/24 01:32:51;;;;;;;2.45;1.20;;;12.40;78.50;;;;;;4954335;29;20039;-75
2023/11/24 01:35:18;;;;;;;1.63;1.02;;;12.40;78.50;;;;;;4954645;29;20035;-75
2023/11/24 01:37:44;;;;;;;1.85;1.20;;;12.40;78.50;;;;;;4954868;29;20035;-74
2023/11/24 01:40:11;;;;;;;2.40;1.30;;;12.40;78.50;;;;;;4954520;29;20031;-74
2023/11/24 01:42:37;;;;;;;2.35;1.35;;;12.40;78.50;;;;;;4923335;29;20090;-76
2023/11/24 01:45:09;;;;;;;3.35;1.40;;;12.30;78.50;;;;;;4954484;29;20468;-75
2023/11/24 01:47:34;;;;;;;1.55;1.20;;;12.30;78.50;;;;;;4939345;29;20515;-74
2023/11/24 01:50:03;;;;;;;1.17;1.00;;;12.30;79.10;;;;;;4955010;29;20035;-75
2023/11/24 01:52:30;;;;;;;3.50;1.38;;;12.20;78.40;;;;;;4955445;28;20461;-76
2023/11/24 01:54:56;;;;;;;2.92;1.30;;;12.20;78.40;;;;;;4955880;28;20031;-75
2023/11/24 01:57:23;;;;;;;1.83;1.20;;;12.20;78.40;;;;;;4954369;29;20039;-74
2023/11/24 01:59:49;;;;;;;2.80;1.20;;;12.20;78.50;;;;;;4938337;29;20082;-74
2023/11/24 02:02:15;;;;;;;2.67;1.30;;;12.20;78.50;;;;;;4954388;29;20498;-75
2023/11/24 02:04:44;;;;;;;2.72;1.40;;;12.20;78.50;;;;;;4954323;29;20484;-74
2023/11/24 02:07:10;;;;;;;2.33;1.27;;;12.10;78.40;;;;;;4955840;28;20042;-75
2023/11/24 02:09:36;;;;;;;2.75;1.40;;;12.10;78.50;;;;;;4922800;29;20437;-76
2023/11/24 02:12:02;;;;;;;1.48;1.20;;;12.10;78.50;;;;;;4922275;29;20058;-75
2023/11/24 02:14:30;;;;;;;2.25;1.30;;;12.10;78.50;;;;;;4955182;29;20074;-76
2023/11/24 02:16:59;;;;;;;1.45;1.10;;;12.10;78.60;;;;;;4955134;28;20078;-75
2023/11/24 02:19:27;;;;;;;2.08;1.30;;;12.00;78.60;;;;;;4954123;29;20484;-75
2023/11/24 02:21:53;;;;;;;2.15;1.30;;;12.00;78.60;;;;;;4955161;28;20063;-75
2023/11/24 02:24:20;;;;;;;1.40;1.17;;;12.00;78.60;;;;;;4954701;29;20035;-75
2023/11/24 02:26:46;;;;;;;4.45;1.15;;;12.00;78.60;;;;;;4922370;29;20151;-75
2023/11/24 02:29:13;;;;;;;2.13;1.13;;;12.00;78.60;;;;;;4937926;29;20043;-74
2023/11/24 02:31:39;;;;;;;2.33;1.05;;;11.90;78.60;;;;;;4954039;29;20115;-74
2023/11/24 02:34:07;;;;;;;3.70;1.30;;;11.90;78.70;;;;;;4955378;29;20027;-77
2023/11/24 02:36:36;;;;;;;1.80;1.35;;;11.80;78.70;;;;;;4939031;29;20047;-75
2023/11/24 02:39:03;;;;;;;2.25;1.23;;;11.80;78.70;;;;;;4955250;28;20114;-75
2023/11/24 02:41:30;;;;;;;1.58;1.20;;;11.80;78.60;;;;;;4954829;29;20161;-75
2023/11/24 02:43:56;;;;;;;2.85;1.38;;;11.80;78.60;;;;;;4937894;29;20114;-76
2023/11/24 02:46:22;;;;;;;3.33;1.25;;;11.80;78.60;;;;;;4954896;28;20059;-75
2023/11/24 02:48:47;;;;;;;3.33;1.38;;;11.70;78.60;;;;;;4937770;29;20122;-75
2023/11/24 02:51:14;;;;;;;3.10;1.45;;;11.70;78.60;;;;;;4954532;29;20479;-74
2023/11/24 02:53:40;;;;;;;2.15;1.25;;;11.70;78.70;;;;;;4937338;29;20093;-77
2023/11/24 02:56:07;;;;;;;3.03;1.60;;;11.70;78.70;;;;;;4938464;29;20087;-76
2023/11/24 02:58:34;;;;;;;2.80;1.33;;;11.70;78.70;;;;;;4937831;29;20054;-75
2023/11/24 03:01:01;;;;;;;2.58;1.35;;;11.60;78.70;;;;;;4953563;29;20123;-75
2023/11/24 03:03:28;;;;;;;2.85;1.20;;;11.70;78.70;;;;;;4954260;29;20046;-75
2023/11/24 03:05:55;;;;;;;2.13;1.20;;;11.60;78.70;;;;;;4937580;29;20042;-74
2023/11/24 03:08:21;;;;;;;2.22;1.20;;;11.60;78.70;;;;;;4938163;29;20029;-75
2023/11/24 03:10:47;;;;;;;2.50;1.10;;;11.60;78.70;;;;;;4955216;28;20082;-75
2023/11/24 03:13:13;;;;;;;1.48;1.20;;;11.60;78.70;;;;;;4957233;29;20563;-75
2023/11/24 03:15:40;;;;;;;2.72;1.27;;;11.50;79.10;;;;;;4957283;29;20044;-75
2023/11/24 03:18:07;;;;;;;3.55;1.30;;;11.50;78.70;;;;;;4958079;29;20468;-75
2023/11/24 03:20:33;;;;;;;2.17;1.20;;;11.50;78.80;;;;;;4925539;29;20039;-75
2023/11/24 03:22:59;;;;;;;2.53;1.30;;;11.50;78.80;;;;;;4941250;29;20035;-76
2023/11/24 03:25:25;;;;;;;2.20;1.10;;;11.50;78.80;;;;;;4958428;28;20031;-75
2023/11/24 03:27:51;;;;;;;2.35;1.20;;;11.40;78.80;;;;;;4957088;29;20031;-74
2023/11/24 03:30:19;;;;;;;2.20;1.17;;;11.40;78.90;;;;;;4941309;29;20035;-75
2023/11/24 03:32:44;;;;;;;1.88;1.20;;;11.40;78.80;;;;;;4940874;29;20040;-75
2023/11/24 03:35:11;;;;;;;2.45;1.10;;;11.40;78.90;;;;;;4956633;29;20480;-75
2023/11/24 03:37:37;;;;;;;1.58;1.15;;;11.30;78.90;;;;;;4941184;29;20039;-74
2023/11/24 03:40:05;;;;;;;2.00;1.30;;;11.40;78.90;;;;;;4957167;29;20035;-75
2023/11/24 03:42:31;;;;;;;2.15;1.17;;;11.30;78.90;;;;;;4956864;29;20063;-74
2023/11/24 03:44:57;;;;;;;2.20;1.30;;;11.30;78.80;;;;;;4957127;29;20031;-75
2023/11/24 03:47:23;;;;;;;2.25;1.40;;;11.30;78.80;;;;;;4941070;29;20082;-74
2023/11/24 03:49:49;;;;;;;1.77;1.08;;;11.30;78.90;;;;;;4956938;29;20090;-74
2023/11/24 03:52:14;;;;;;;2.78;1.40;;;11.30;78.90;;;;;;4956617;29;20087;-75
2023/11/24 03:54:40;;;;;;;1.52;1.13;;;11.30;78.90;;;;;;4957451;29;20448;-75
2023/11/24 03:57:06;;;;;;;1.70;1.15;;;11.20;78.80;;;;;;4956845;29;20410;-75
2023/11/24 03:59:32;;;;;;;2.25;1.20;;;11.20;78.90;;;;;;4941615;29;20043;-75
2023/11/24 04:01:58;;;;;;;1.33;1.10;;;11.20;78.80;;;;;;4956982;29;20473;-75
2023/11/24 04:04:24;;;;;;;2.08;1.10;;;11.20;78.80;;;;;;4940330;29;20164;-74
2023/11/24 04:06:50;;;;;;;1.73;1.20;;;11.20;78.90;;;;;;4940230;29;20133;-74
2023/11/24 04:09:16;;;;;;;1.63;1.20;;;11.20;78.90;;;;;;4940626;29;20086;-75
2023/11/24 04:11:42;;;;;;;1.65;1.20;;;11.20;78.90;;;;;;4955932;29;20031;-74
2023/11/24 04:14:08;;;;;;;2.58;1.23;;;11.10;78.90;;;;;;4940207;29;20067;-75
2023/11/24 04:16:35;;;;;;;1.23;1.10;;;11.10;78.90;;;;;;4940126;29;20031;-75
2023/11/24 04:19:00;;;;;;;1.17;1.02;;;11.10;79.00;;;;;;4956142;29;20175;-74
2023/11/24 04:21:26;;;;;;;1.52;1.00;;;11.10;79.00;;;;;;4956794;29;20079;-74
2023/11/24 04:23:52;;;;;;;1.60;1.10;;;11.10;79.00;;;;;;4939584;29;20113;-77
2023/11/24 04:26:18;;;;;;;1.48;1.30;;;11.10;79.10;;;;;;4924367;29;20493;-75
2023/11/24 04:28:45;;;;;;;1.65;1.10;;;11.00;79.00;;;;;;4955688;29;20518;-75
2023/11/24 04:31:10;;;;;;;2.13;1.10;;;11.10;79.10;;;;;;4955988;29;20031;-74
2023/11/24 04:33:36;;;;;;;2.28;1.10;;;11.10;79.10;;;;;;4939737;29;20070;-74
2023/11/24 04:36:02;;;;;;;1.08;1.00;;;11.00;79.10;;;;;;4955576;29;20492;-75
2023/11/24 04:38:28;;;;;;;1.25;1.10;;;11.00;79.10;;;;;;4955490;29;20432;-76
2023/11/24 04:40:54;;;;;;;2.40;1.00;;;11.00;79.10;;;;;;4955508;29;20106;-75
2023/11/24 04:43:24;;;;;;;2.05;1.05;;;11.00;79.10;;;;;;4924317;29;20455;-75
2023/11/24 04:45:50;;;;;;;1.33;1.00;;;11.00;79.10;;;;;;4955516;29;20038;-74
2023/11/24 04:48:16;;;;;;;1.27;1.05;;;11.00;79.10;;;;;;4940272;29;20027;-75
2023/11/24 04:50:42;;;;;;;1.30;1.10;;;10.90;79.00;;;;;;4955940;29;20440;-74
2023/11/24 04:53:07;;;;;;;2.08;1.20;;;11.00;79.10;;;;;;4956467;29;20039;-75
2023/11/24 04:55:33;;;;;;;2.03;1.08;;;11.00;79.10;;;;;;4955354;29;20103;-75
2023/11/24 04:57:59;;;;;;;3.60;1.35;;;10.90;79.00;;;;;;4923569;29;20451;-75
2023/11/24 05:00:25;;;;;;;2.45;1.20;;;10.90;79.10;;;;;;4955205;29;20090;-74
2023/11/24 05:02:51;;;;;;;1.95;1.30;;;10.90;79.10;;;;;;4939356;29;20043;-75
2023/11/24 05:05:17;;;;;;;1.13;1.00;;;10.90;79.10;;;;;;4955768;29;20353;-76
2023/11/24 05:07:43;;;;;;;1.92;1.20;;;10.90;79.10;;;;;;4957113;28;20039;-74
2023/11/24 05:10:09;;;;;;;1.95;1.10;;;10.90;79.10;;;;;;4955047;29;20027;-74
2023/11/24 05:12:35;;;;;;;1.42;1.20;;;10.90;79.10;;;;;;4939163;29;20071;-74
2023/11/24 05:15:07;;;;;;;2.25;1.10;;;10.90;79.10;;;;;;4939440;29;20039;-75
2023/11/24 05:17:34;;;;;;;2.58;1.02;;;10.80;79.00;;;;;;4957083;28;20039;-75
2023/11/24 05:20:01;;;;;;;3.28;1.40;;;10.80;79.00;;;;;;4954850;29;20047;-75
2023/11/24 05:22:27;;;;;;;1.50;1.10;;;10.80;79.00;;;;;;4955964;29;20066;-75
2023/11/24 05:24:53;;;;;;;1.80;1.10;;;10.80;79.10;;;;;;4939269;29;20062;-75
2023/11/24 05:27:19;;;;;;;2.30;1.23;;;10.80;79.10;;;;;;4940058;29;20460;-75
2023/11/24 05:29:45;;;;;;;1.25;1.00;;;10.80;79.10;;;;;;4955002;29;20043;-74
2023/11/24 05:32:11;;;;;;;1.70;1.10;;;10.80;79.10;;;;;;4955652;28;20031;-74
2023/11/24 05:34:38;;;;;;;1.40;1.00;;;10.80;79.00;;;;;;4938750;29;20042;-75
2023/11/24 05:37:07;;;;;;;1.15;1.00;;;10.70;79.00;;;;;;4955732;28;20388;-75
2023/11/24 05:39:35;;;;;;;1.00;1.00;;;10.70;79.00;;;;;;4955674;28;20046;-74
2023/11/24 05:42:01;;;;;;;1.67;1.13;;;10.70;79.00;;;;;;4938725;29;20106;-75
2023/11/24 05:44:27;;;;;;;1.20;1.10;;;10.70;79.00;;;;;;4955100;29;20042;-75
2023/11/24 05:46:52;;;;;;;1.20;1.05;;;10.70;79.00;;;;;;4955089;29;20404;-75
2023/11/24 05:49:19;;;;;;;2.53;1.30;;;10.70;79.00;;;;;;4923358;29;20119;-75
2023/11/24 05:51:44;;;;;;;1.25;1.15;;;10.70;79.00;;;;;;4938285;29;20162;-77
2023/11/24 05:54:12;;;;;;;1.20;1.10;;;10.70;79.60;;;;;;4955545;29;20107;-74
2023/11/24 05:56:39;;;;;;;3.03;1.42;;;10.70;79.00;;;;;;4954639;29;20038;-74
2023/11/24 05:59:05;;;;;;;1.67;1.10;;;10.70;79.00;;;;;;4938592;29;20086;-75
2023/11/24 06:01:31;;;;;;;2.30;1.30;;;10.70;79.60;;;;;;4955940;28;20027;-75
2023/11/24 06:03:57;;;;;;;2.17;1.17;;;10.70;79.00;;;;;;4939242;29;20121;-75
2023/11/24 06:06:23;;;;;;;2.90;1.40;;;10.60;78.90;;;;;;4923286;29;20035;-74
2023/11/24 06:08:51;;;;;;;1.55;1.00;;;10.60;78.90;;;;;;4954280;29;20024;-73
2023/11/24 06:11:18;;;;;;;1.13;1.00;;;10.70;79.00;;;;;;4923375;29;20042;-73
2023/11/24 06:13:47;;;;;;;1.55;1.15;;;10.60;79.00;;;;;;4938369;29;20122;-73
2023/11/24 06:16:12;;;;;;;1.35;1.10;;;10.60;79.00;;;;;;4954869;29;20035;-74
2023/11/24 06:18:40;;;;;;;1.02;1.00;;;10.60;79.00;;;;;;4955648;28;20086;-74
2023/11/24 06:21:10;;;;;;;1.55;1.10;;;10.60;79.10;;;;;;4938196;29;20552;-72
2023/11/24 06:23:36;;;;;;;2.22;1.30;;;10.60;79.10;;;;;;4954000;29;20125;-74
2023/11/24 06:26:02;;;;;;;3.92;1.10;;;10.60;79.10;;;;;;4953420;29;20043;-74
2023/11/24 06:28:28;;;;;;;2.65;1.13;;;10.60;79.20;;;;;;4954043;29;20034;-76
2023/11/24 06:30:54;;;;;;;1.42;1.13;;;10.60;79.10;;;;;;4953684;29;20031;-76
2023/11/24 06:33:24;;;;;;;2.75;1.25;;;10.60;79.20;;;;;;4953997;29;20046;-75
2023/11/24 06:35:50;;;;;;;2.90;1.20;;;10.60;79.20;;;;;;4953472;29;20095;-74
2023/11/24 06:38:16;;;;;;;2.47;1.40;;;10.50;79.10;;;;;;4953732;29;20023;-75
2023/11/24 06:40:43;;;;;;;2.33;1.23;;;10.50;79.10;;;;;;4937940;29;20063;-75
2023/11/24 06:43:09;;;;;;;1.45;1.20;;;10.50;79.10;;;;;;4955108;29;20086;-74
2023/11/24 06:45:34;;;;;;;1.85;1.23;;;10.50;79.10;;;;;;4938533;29;20031;-73
2023/11/24 06:48:00;;;;;;;2.00;1.10;;;10.50;79.20;;;;;;4941954;29;20037;-73
2023/11/24 06:50:26;;;;;;;1.58;1.10;;;10.50;79.20;;;;;;4958103;29;20065;-74
2023/11/24 06:52:52;;;;;;;1.83;1.15;;;10.50;79.20;;;;;;4926139;29;20039;-74
2023/11/24 06:55:18;;;;;;;1.50;1.20;;;10.50;79.20;;;;;;4942185;29;20044;-73
2023/11/24 06:57:44;;;;;;;1.60;1.20;;;10.50;79.20;;;;;;4941810;29;20122;-74
2023/11/24 07:00:16;;;;;;;1.77;1.10;;;10.50;79.20;;;;;;4925944;29;20122;-75
2023/11/24 07:02:41;;;;;;;1.13;1.00;;;10.50;79.20;;;;;;4942707;29;20047;-73
2023/11/24 07:05:09;;;;;;;1.15;0.93;;;10.40;79.80;;;;;;4958085;29;20078;-73
2023/11/24 07:07:35;;;;;;;1.65;1.00;;;10.40;79.20;;;;;;4941713;29;20035;-73
2023/11/24 07:10:00;;;;;;;1.70;1.15;;;10.40;79.20;;;;;;4941651;29;20093;-74
2023/11/24 07:12:26;;;;;;;1.13;0.90;;;10.40;79.80;;;;;;4957698;29;20067;-73
2023/11/24 07:14:52;;;;;;;1.95;1.10;;;10.40;79.20;;;;;;4940856;29;20070;-76
2023/11/24 07:17:18;;;;;;;1.27;1.00;;;10.40;79.20;;;;;;4941350;29;20047;-74
2023/11/24 07:19:44;;;;;;;1.98;1.17;;;10.40;79.20;;;;;;4941864;29;20032;-74
2023/11/24 07:22:10;;;;;;;1.30;1.20;;;10.40;79.20;;;;;;4957625;29;20404;-74
2023/11/24 07:24:38;;;;;;;1.63;1.10;;;10.40;79.20;;;;;;4957423;29;20031;-75
2023/11/24 07:27:05;;;;;;;1.33;1.05;;;10.30;79.20;;;;;;4959033;28;20071;-74
2023/11/24 07:29:33;;;;;;;1.88;1.10;;;10.40;79.20;;;;;;4957184;29;20086;-74
2023/11/24 07:32:01;;;;;;;2.38;1.35;;;10.40;79.20;;;;;;4925675;29;20038;-75
2023/11/24 07:34:27;;;;;;;1.80;1.10;;;10.40;79.20;;;;;;4941347;29;20031;-75
2023/11/24 07:36:53;;;;;;;2.20;1.33;;;10.30;79.10;;;;;;4957790;29;20098;-75
2023/11/24 07:39:20;;;;;;;1.92;1.10;;;10.30;79.20;;;;;;4925542;29;20435;-74
2023/11/24 07:41:46;;;;;;;2.05;1.23;;;10.30;79.20;;;;;;4925929;29;20383;-75
2023/11/24 07:44:13;;;;;;;0.90;0.90;;;10.30;79.20;;;;;;4958459;29;20043;-75
2023/11/24 07:46:39;;;;;;;1.85;1.10;;;10.30;79.20;;;;;;4940874;29;20035;-75
2023/11/24 07:49:05;;;;;;;1.60;1.15;;;10.30;79.20;;;;;;4941921;29;20035;-74
2023/11/24 07:51:30;;;;;;;2.40;1.10;;;10.30;79.30;;;;;;4958200;29;20031;-77
2023/11/24 07:53:56;;;;;;;1.13;1.00;;;10.30;79.30;;;;;;4956458;29;20102;-76
2023/11/24 07:56:22;;;;;;;1.10;1.00;;;10.20;79.20;;;;;;4957959;28;20074;-75
2023/11/24 07:58:48;;;;;;;1.60;1.10;;;10.20;79.20;;;;;;4940541;29;20027;-75
2023/11/24 08:01:14;;;;;;;1.60;1.20;;;10.20;79.20;;;;;;4956768;29;20043;-74
2023/11/24 08:03:40;;;;;;;1.25;1.10;;;10.20;79.20;;;;;;4940906;29;20036;-75
2023/11/24 08:06:08;;;;;;;1.23;1.10;;;10.20;79.20;;;;;;4956628;29;20468;-75
2023/11/24 08:08:35;;;;;;;2.58;1.17;;;10.20;79.20;;;;;;4956895;29;20114;-75
2023/11/24 08:11:01;;;;;;;1.90;1.10;;;10.20;79.30;;;;;;4956958;29;20129;-76
2023/11/24 08:13:27;;;;;;;1.33;1.10;;;10.20;79.30;;;;;;4940363;29;20063;-75
2023/11/24 08:15:53;;;;;;;3.08;1.38;;;10.20;79.30;;;;;;4956315;29;20464;-74
2023/11/24 08:18:19;;;;;;;1.65;1.00;;;10.20;79.30;;;;;;4940292;29;20137;-74
2023/11/24 08:20:45;;;;;;;1.75;1.13;;;10.20;79.20;;;;;;4958368;29;20386;-74
2023/11/24 08:23:15;;;;;;;1.63;1.20;;;10.10;79.20;;;;;;4956253;29;20488;-74
2023/11/24 08:25:41;;;;;;;1.30;1.10;;;10.10;79.20;;;;;;4956014;29;20066;-75
2023/11/24 08:28:07;;;;;;;1.67;1.05;;;10.10;79.20;;;;;;4940673;29;20111;-74
2023/11/24 08:30:32;;;;;;;1.95;1.10;;;10.10;79.20;;;;;;4908463;29;20539;-74
2023/11/24 08:32:58;;;;;;;1.42;1.20;;;10.10;79.20;;;;;;4940073;29;20047;-74
2023/11/24 08:35:27;;;;;;;1.10;1.00;;;10.10;79.10;;;;;;4956360;29;20047;-74
2023/11/24 08:37:53;;;;;;;2.35;1.10;;;10.10;79.20;;;;;;4957454;28;20123;-76
2023/11/24 08:40:21;;;;;;;2.15;1.00;;;10.10;79.10;;;;;;4955822;29;20115;-75
2023/11/24 08:42:48;;;;;;;1.25;1.15;;;10.10;79.10;;;;;;4924534;29;20039;-74
2023/11/24 08:45:14;;;;;;;0.90;0.90;;;10.10;79.10;;;;;;4940063;29;20050;-76
2023/11/24 08:47:43;;;;;;;1.80;1.17;;;10.00;79.10;;;;;;4939895;29;20056;-76
2023/11/24 08:50:12;;;;;;;2.47;1.10;;;10.10;79.20;;;;;;4957371;29;20039;-74
2023/11/24 08:52:39;;;;;;;1.17;1.08;;;10.00;79.10;;;;;;4940009;29;20043;-74
2023/11/24 08:55:09;;;;;;;1.38;1.10;;;10.00;79.10;;;;;;4940003;29;20082;-74
2023/11/24 08:57:35;;;;;;;1.00;0.90;;;10.00;79.10;;;;;;4940151;29;20149;-74
2023/11/24 09:00:02;;;;;;;3.53;1.20;;;10.00;79.10;;;;;;4939773;29;20388;-74
2023/11/24 09:02:29;;;;;;;1.15;1.00;;;10.00;79.10;;;;;;4955679;29;20035;-74
2023/11/24 09:04:55;;;;;;;2.13;1.20;;;10.00;79.10;;;;;;4956570;28;20031;-75
2023/11/24 09:07:21;;;;;;;1.48;1.27;;;10.00;79.10;;;;;;4956743;28;20050;-75
2023/11/24 09:09:47;;;;;;;0.95;0.93;;;10.00;79.10;;;;;;4938507;29;20031;-75
2023/11/24 09:12:13;;;;;;;1.20;1.10;;;10.00;79.10;;;;;;4955176;29;20042;-74
2023/11/24 09:14:40;;;;;;;1.08;1.00;;;10.00;79.10;;;;;;4939515;29;20138;-74
2023/11/24 09:17:09;;;;;;;0.90;0.90;;;10.00;79.20;;;;;;4939290;29;20061;-74
2023/11/24 09:19:35;;;;;;;1.00;1.00;;;10.00;79.20;;;;;;4956862;28;20035;-76
2023/11/24 09:22:03;;;;;;;1.67;1.13;;;9.90;79.10;;;;;;4958046;28;20035;-75
2023/11/24 09:24:29;;;;;;;1.05;1.00;;;10.00;79.10;;;;;;4958554;28;20094;-76
2023/11/24 09:26:55;;;;;;;0.90;0.90;;;10.00;79.10;;;;;;4925973;29;20039;-75
2023/11/24 09:29:25;;;;;;;1.10;0.95;;;10.00;79.20;;;;;;4956193;29;20094;-74
2023/11/24 09:31:52;;;;;;;1.30;1.20;;;10.00;79.20;;;;;;4955400;29;20031;-75
2023/11/24 09:34:17;;;;;;;1.42;1.02;;;10.00;79.20;;;;;;4939531;29;20038;-75
2023/11/24 09:36:45;;;;;;;0.95;0.90;;;9.90;79.20;;;;;;4939442;29;20384;-75
2023/11/24 09:39:17;;;;;;;0.90;0.90;;;9.90;79.20;;;;;;4939193;29;20392;-75
2023/11/24 09:41:48;;;;;;;3.15;1.17;;;9.90;79.20;;;;;;4955700;29;20105;-75
2023/11/24 09:44:15;;;;;;;1.40;1.30;;;9.90;79.20;;;;;;4955958;29;20503;-75
2023/11/24 09:46:43;;;;;;;1.20;1.10;;;9.90;79.20;;;;;;4956081;29;20395;-75
2023/11/24 09:49:10;;;;;;;1.00;1.00;;;9.90;79.30;;;;;;4954558;29;20122;-75
2023/11/24 09:51:38;;;;;;;1.25;0.98;;;9.90;79.20;;;;;;4954927;29;20054;-75
2023/11/24 09:54:06;;;;;;;1.33;1.00;;;9.90;79.30;;;;;;4954696;29;20031;-75
2023/11/24 09:56:32;;;;;;;1.35;0.90;;;9.90;79.20;;;;;;4922951;29;20083;-75
2023/11/24 09:58:58;;;;;;;1.17;1.00;;;9.90;79.20;;;;;;4923018;29;20035;-76
2023/11/24 10:01:25;;;;;;;1.20;1.10;;;9.90;79.30;;;;;;4955089;29;20042;-73
2023/11/24 10:03:59;;;;;;;0.73;0.73;;;9.90;79.30;;;;;;4955649;28;20056;-73
2023/11/24 10:06:27;;;;;;;1.10;0.98;;;9.90;79.30;;;;;;4939760;29;20038;-73
2023/11/24 10:08:52;;;;;;;1.10;1.00;;;9.90;79.90;;;;;;4940005;29;20043;-75
2023/11/24 10:11:28;;;;;;;2.92;1.10;;;9.90;79.30;;;;;;4955669;29;20428;-75
2023/11/24 10:13:55;;;;;;;0.80;0.80;;;9.90;79.30;;;;;;4938364;29;20106;-76
2023/11/24 10:16:25;;;;;;;2.63;1.08;;;9.90;79.30;;;;;;4956090;28;20028;-73
2023/11/24 10:18:55;;;;;;;1.00;0.90;;;9.90;79.30;;;;;;4954614;29;20082;-74
2023/11/24 10:21:21;;;;;;;1.00;1.00;;;9.90;79.30;;;;;;4923157;29;20054;-75
2023/11/24 10:23:48;;;;;;;1.20;1.10;;;9.90;79.20;;;;;;4954587;29;20027;-75
2023/11/24 10:26:15;;;;;;;1.20;1.10;;;9.90;79.20;;;;;;4954306;29;20035;-75
2023/11/24 10:28:44;;;;;;;1.42;1.00;;;9.90;79.20;;;;;;4938331;29;20038;-75
2023/11/24 10:31:12;;;;;;;1.25;1.00;;;9.90;79.20;;;;;;4938711;29;20038;-75
2023/11/24 10:33:42;;;;;;;1.40;1.10;;;9.90;79.20;;;;;;4955133;29;20035;-75
2023/11/24 10:36:08;;;;;;;1.83;1.25;;;9.90;79.20;;;;;;4954310;29;20484;-75
2023/11/24 10:38:39;;;;;;;3.67;1.17;;;9.90;79.20;;;;;;4955848;29;20024;-75
2023/11/24 10:41:12;;;;;;;1.92;1.23;;;9.90;79.30;;;;;;4923230;29;20038;-75
2023/11/24 10:43:39;;;;;;;1.20;1.10;;;9.90;79.50;;;;;;4956261;28;20027;-75
2023/11/24 10:46:07;;;;;;;1.98;1.30;;;9.90;79.20;;;;;;4955094;28;20457;-75
2023/11/24 10:48:47;;;;;;;1.40;1.10;;;9.90;79.20;;;;;;4938348;29;20092;-75
2023/11/24 10:51:36;;;;;;;0.90;0.90;;;9.90;79.30;;;;;;4954103;29;20035;-75
2023/11/24 10:54:03;;;;;;;0.88;0.88;;;9.90;79.20;;;;;;4938336;29;20058;-75
2023/11/24 10:56:31;;;;;;;1.02;1.00;;;9.90;79.20;;;;;;4954216;29;20031;-75
2023/11/24 10:58:58;;;;;;;1.60;1.08;;;9.90;79.20;;;;;;4954359;29;20028;-75
2023/11/24 11:01:27;;;;;;;1.10;1.00;;;9.90;79.20;;;;;;4939041;29;20031;-75
2023/11/24 11:03:57;;;;;;;1.30;1.20;;;9.90;79.20;;;;;;4953917;29;20142;-77
2023/11/24 11:06:44;;;;;;;1.20;0.98;;;9.90;79.20;;;;;;4955206;28;20044;-75
2023/11/24 11:10:02;;;;;;;1.23;1.10;;;9.90;79.20;;;;;;4955711;28;20023;-75
2023/11/24 11:12:30;;;;;;;1.30;1.00;;;9.90;79.20;;;;;;4941433;29;20067;-75
2023/11/24 11:14:57;;;;;;;1.15;1.05;;;9.90;79.20;;;;;;4956838;28;20079;-75
2023/11/24 11:17:26;;;;;;;1.40;1.17;;;9.90;79.10;;;;;;4954455;29;20462;-75
2023/11/24 11:20:12;;;;;;;1.42;1.05;;;9.90;79.20;;;;;;4955743;28;20038;-75
2023/11/24 11:22:40;;;;;;;1.08;1.00;;;9.90;79.30;;;;;;4955702;28;20085;-75
2023/11/24 11:25:27;;;;;;;1.50;1.10;;;10.00;79.30;;;;;;4938189;29;20042;-75
2023/11/24 11:27:56;;;;;;;1.20;1.15;;;9.90;79.30;;;;;;4955539;29;20042;-75
2023/11/24 11:30:25;;;;;;;1.23;1.13;;;9.90;79.10;;;;;;4938565;29;20031;-75
2023/11/24 11:33:10;;;;;;;1.63;1.30;;;10.00;79.20;;;;;;4954986;28;20042;-75
2023/11/24 11:35:36;;;;;;;1.38;1.10;;;10.00;79.40;;;;;;4957440;29;20043;-75
2023/11/24 11:38:04;;;;;;;1.60;1.15;;;10.00;79.20;;;;;;4941075;29;20081;-75
2023/11/24 11:40:35;;;;;;;1.55;1.33;;;10.00;79.30;;;;;;4958265;28;20062;-75
2023/11/24 11:43:09;;;;;;;1.73;1.35;;;10.00;79.30;;;;;;4926328;29;20031;-75
2023/11/24 11:45:48;;;;;;;1.23;1.10;;;10.00;79.30;;;;;;4956979;29;20480;-75
2023/11/24 11:48:14;;;;;;;1.63;1.10;;;10.00;79.40;;;;;;4957155;29;20035;-75
2023/11/24 11:51:00;;;;;;;1.30;1.20;;;10.00;79.30;;;;;;4956845;29;20031;-75
2023/11/24 11:53:28;;;;;;;2.83;1.30;;;10.00;79.40;;;;;;4957287;29;20090;-75
2023/11/24 11:56:09;;;;;;;2.30;1.15;;;10.00;79.20;;;;;;4940844;29;20035;-75
2023/11/24 11:58:35;;;;;;;1.15;1.08;;;10.00;79.20;;;;;;4942057;29;20032;-75
2023/11/24 12:01:05;;;;;;;6.10;1.50;;;10.00;79.20;;;;;;4956740;29;20038;-75
2023/11/24 12:03:34;;;;;;;2.83;1.40;;;10.00;79.20;;;;;;4957063;29;20046;-75
2023/11/24 12:06:07;;;;;;;2.30;1.40;;;10.00;79.20;;;;;;4941648;29;20058;-76
2023/11/24 12:08:33;;;;;;;1.92;1.30;;;10.10;79.20;;;;;;4956746;29;20027;-75
2023/11/24 12:10:59;;;;;;;3.22;1.33;;;10.00;79.10;;;;;;4956667;29;20059;-75
2023/11/24 12:13:25;;;;;;;3.45;1.48;;;10.10;79.20;;;;;;4940333;29;20059;-75
2023/11/24 12:15:53;;;;;;;3.83;1.75;;;10.10;79.20;;;;;;4925265;29;20032;-75
2023/11/24 12:18:19;;;;;;;2.42;1.35;;;10.10;79.20;;;;;;4940643;29;20039;-76
2023/11/24 12:20:46;;;;;;;2.33;1.25;;;10.10;79.20;;;;;;4956435;29;20087;-75
2023/11/24 12:23:14;;;;;;;2.63;1.38;;;10.10;79.10;;;;;;4956914;29;20051;-75
2023/11/24 12:25:41;;;;;;;3.15;1.48;;;10.10;79.20;;;;;;4940737;29;20035;-75
2023/11/24 12:28:09;;;;;;;2.30;1.42;;;10.20;79.20;;;;;;4956538;29;20027;-76
2023/11/24 12:30:42;;;;;;;2.42;1.30;;;10.20;79.20;;;;;;4940539;29;20031;-75
2023/11/24 12:33:20;;;;;;;2.92;1.42;;;10.20;79.20;;;;;;4956516;29;20043;-75
2023/11/24 12:35:52;;;;;;;2.33;1.30;;;10.30;79.20;;;;;;4956838;29;20066;-75
2023/11/24 12:38:19;;;;;;;3.17;1.30;;;10.20;79.10;;;;;;4940515;29;20079;-76
2023/11/24 12:40:45;;;;;;;3.50;1.67;;;10.30;79.20;;;;;;4940251;29;20031;-75
2023/11/24 12:43:15;;;;;;;3.50;1.30;;;10.30;79.10;;;;;;4957496;28;20063;-75
2023/11/24 12:45:42;;;;;;;4.18;1.30;;;10.30;79.10;;;;;;4955778;29;20023;-75
2023/11/24 12:48:24;;;;;;;3.15;1.30;;;10.40;79.10;;;;;;4955979;29;20074;-75
2023/11/24 12:50:51;;;;;;;3.10;1.45;;;10.40;79.10;;;;;;4956502;29;20039;-75